Latest Weather Observations for Eucla

IDW60801

Issued at 3:02 pm WST Saturday 23 May 2015 (issued every 30 minutes, with the page automatically refreshed every 10 minutes)

About weather observations | Map of weather stations | Latest weather observations for WA | Other Formats
Station Details ID: 011003 Name: EUCLA Lat: -31.68 Lon: 128.90 Height: 93.1 m
Data from the previous 72 hours. | See also: Recent months at Eucla
Date/Time
WST
Temp
°C
App
Temp
°C
Dew
Point
Rel
Hum
%
Delta-T
°C
Wind Press
QNH
hPa
Press
MSL
hPa
Rain
since 9 am
mm
Dir
 
Spd
km/h
Gust
km/h
Spd
kts
Gust
kts
23/03:00pm 18.5 13.8 1.1 31 7.8 N 15 19 8 10 1021.7 - 0.0
23/02:30pm 18.6 13.6 1.2 31 7.8 NNE 17 28 9 15 1021.4 1021.3 0.0
23/02:00pm 18.8 13.2 0.9 30 8.0 NNE 20 30 11 16 1021.6 1021.5 0.0
23/01:30pm 19.7 14.2 1.7 30 8.2 NNE 20 30 11 16 1021.6 1021.5 0.0
23/01:00pm 19.2 13.9 1.7 31 7.9 NNE 19 30 10 16 1021.7 1021.6 0.0
23/12:30pm 18.6 12.7 2.0 33 7.5 NNE 22 33 12 18 1022.1 1022.0 0.0
23/12:00pm 18.0 13.1 1.9 34 7.3 N 17 30 9 16 1022.7 1022.6 0.0
23/11:30am 17.7 11.5 2.1 35 7.1 N 24 35 13 19 1022.8 1022.7 0.0
23/11:00am 17.6 11.1 2.4 36 6.9 NNE 26 35 14 19 1023.3 1023.2 0.0
23/10:30am 16.8 10.3 2.4 38 6.5 NNE 26 39 14 21 1023.6 1023.5 0.0
23/10:00am 15.6 8.7 2.4 41 5.9 NNE 28 44 15 24 1024.1 1024.0 0.0
23/09:30am 15.4 8.5 2.6 42 5.8 NNE 28 41 15 22 1024.4 1024.3 0.0
23/09:13am 15.6 8.5 3.4 44 5.6 N 30 50 16 27 1024.5 1024.4 0.0
23/09:00am 13.8 6.6 3.0 48 4.8 N 30 43 16 23 1024.5 1024.4 0.0
23/08:30am 12.3 6.0 3.5 55 3.9 NNE 26 41 14 22 1024.8 1024.7 0.0
23/08:00am 11.3 4.5 3.1 57 3.6 NNE 28 39 15 21 1025.0 1024.9 0.0
23/07:30am 10.6 4.5 2.9 59 3.3 NNE 24 33 13 18 1025.0 1024.9 0.0
23/07:00am 10.3 4.6 2.9 60 3.2 NNE 22 35 12 19 1025.1 1025.0 0.0
23/06:30am 10.1 4.8 2.9 61 3.1 NNE 20 33 11 18 1025.1 1025.0 0.0
23/06:00am 9.8 4.5 3.1 63 2.9 NNE 20 30 11 16 1024.9 1024.8 0.0
23/05:30am 9.7 5.0 3.2 64 2.8 NNE 17 26 9 14 1025.1 1025.0 0.0
23/05:00am 9.4 5.1 3.2 65 2.7 NNE 15 26 8 14 1024.9 1024.8 0.0
23/04:30am 9.8 5.5 3.3 64 2.8 NNE 15 20 8 11 1025.0 1024.9 0.0
23/04:00am 10.1 6.2 3.6 64 2.8 NNE 13 20 7 11 1025.1 1025.0 0.0
23/03:30am 10.2 5.6 3.5 63 2.9 NNE 17 22 9 12 1025.2 1025.1 0.0
23/03:00am 10.6 5.9 3.4 61 3.1 NNE 17 24 9 13 1025.3 1025.2 0.0
23/02:30am 10.9 6.3 3.5 60 3.3 NNE 17 28 9 15 1025.3 1025.2 0.0
23/02:00am 10.6 6.3 3.4 61 3.1 NNE 15 24 8 13 1025.5 1025.4 0.0
23/01:30am 10.9 5.7 3.5 60 3.3 NNE 20 30 11 16 1025.4 1025.3 0.0
23/01:00am 10.5 4.8 3.1 60 3.2 NNE 22 33 12 18 1025.3 1025.2 0.0
23/12:30am 9.7 4.4 3.2 64 2.8 NNE 20 30 11 16 1025.6 1025.5 0.0
23/12:00am 9.3 4.7 3.5 67 2.5 NNE 17 24 9 13 1025.9 1025.8 0.0
 
Date/Time
WST
Temp
°C
App
Temp
°C
Dew
Point
Rel
Hum
%
Delta-T
°C
Wind Press
QNH
hPa
Press
MSL
hPa
Rain
since 9 am
mm
Dir
 
Spd
km/h
Gust
km/h
Spd
kts
Gust
kts
22/11:30pm 8.8 4.6 3.8 71 2.2 NNE 15 19 8 10 1026.5 1026.4 0.0
22/11:00pm 8.9 4.8 4.1 72 2.1 NE 15 22 8 12 1026.6 1026.5 0.0
22/10:30pm 9.1 4.7 4.5 73 2.0 NE 17 24 9 13 1026.9 1026.8 0.0
22/10:00pm 9.4 5.3 4.6 72 2.1 NE 15 19 8 10 1027.1 1027.0 0.0
22/09:30pm 9.8 5.8 5.0 72 2.2 NE 15 22 8 12 1027.0 1026.9 0.0
22/09:00pm 10.7 6.8 5.5 70 2.4 NE 15 20 8 11 1027.3 1027.2 0.0
22/08:30pm 10.7 7.4 6.3 74 2.1 NE 13 20 7 11 1027.2 1027.1 0.0
22/08:00pm 11.2 7.9 6.5 73 2.2 ENE 13 17 7 9 1027.2 1027.1 0.0
22/07:30pm 11.5 8.3 6.8 73 2.2 ENE 13 19 7 10 1027.4 1027.3 0.0
22/07:00pm 11.6 8.3 6.5 71 2.4 ENE 13 19 7 10 1027.2 1027.1 0.0
22/06:30pm 12.0 9.1 6.7 70 2.5 ENE 11 15 6 8 1027.0 1026.9 0.0
22/06:00pm 12.7 10.2 8.0 73 2.3 E 11 15 6 8 1027.0 1026.9 0.0
22/05:30pm 13.4 10.6 8.7 73 2.4 E 13 17 7 9 1027.0 1026.9 0.0
22/05:00pm 13.8 11.0 8.6 71 2.6 E 13 17 7 9 1026.7 1026.6 0.0
22/04:30pm 14.2 11.4 8.4 68 2.9 E 13 19 7 10 1026.7 1026.6 0.0
22/04:00pm 14.9 11.6 8.2 64 3.4 ESE 15 24 8 13 1026.8 1026.7 0.0
22/03:30pm 15.8 12.1 7.8 59 4.0 ESE 17 28 9 15 1026.7 1026.6 0.0
22/03:00pm 16.4 13.3 7.3 55 4.5 ESE 13 19 7 10 1026.2 1026.1 0.0
22/02:30pm 18.1 13.7 4.7 41 6.4 ENE 17 30 9 16 1026.5 1026.4 0.0
22/02:00pm 18.1 14.5 5.0 42 6.3 NE 13 24 7 13 1026.8 1026.7 0.0
22/01:30pm 18.7 14.8 5.5 42 6.5 NE 15 28 8 15 1027.2 1027.1 0.0
22/01:00pm 18.0 13.8 5.6 44 6.0 NNE 17 26 9 14 1027.6 1027.5 0.0
22/12:30pm 17.9 14.1 5.8 45 5.9 NE 15 26 8 14 1028.1 1028.0 0.0
22/12:00pm 16.7 12.8 5.3 47 5.4 NE 15 24 8 13 1028.7 1028.6 0.0
22/11:30am 16.7 13.0 6.2 50 5.1 NNE 15 24 8 13 1029.2 1029.2 0.0
22/11:00am 16.3 13.0 6.2 51 4.9 NNE 13 24 7 13 1029.9 1029.9 0.0
22/10:30am 16.0 11.9 6.4 53 4.7 NE 17 26 9 14 1030.7 1030.6 0.0
22/10:00am 16.0 12.1 7.2 56 4.3 NNE 17 28 9 15 1031.2 1031.1 0.0
22/09:30am 16.1 12.6 7.3 56 4.4 NNE 15 26 8 14 1031.5 1031.4 0.0
22/09:00am 15.0 11.2 7.5 61 3.7 NNE 17 24 9 13 1031.6 1031.5 0.0
22/08:30am 13.9 10.2 7.9 67 3.0 NNE 17 24 9 13 1031.4 1031.3 0.0
22/08:00am 11.7 8.2 7.2 74 2.2 NNE 15 24 8 13 1031.3 1031.2 0.0
22/07:30am 9.4 6.2 6.7 83 1.3 N 13 17 7 9 1031.3 1031.2 0.0
22/07:00am 7.5 4.2 6.4 93 0.5 NNE 13 15 7 8 1030.9 1030.8 0.0
22/06:30am 6.6 3.5 5.6 93 0.4 NNE 11 13 6 7 1030.8 1030.7 0.0
22/06:00am 6.8 3.4 5.7 93 0.5 NNE 13 15 7 8 1030.6 1030.5 0.0
22/05:30am 7.1 3.7 5.7 91 0.6 NNE 13 15 7 8 1030.4 1030.3 0.0
22/05:00am 8.1 4.5 6.6 90 0.7 NNE 15 19 8 10 1030.2 1030.1 0.0
22/04:30am 8.5 5.0 7.0 90 0.7 NNE 15 17 8 9 1030.0 1030.0 0.0
22/04:00am 8.7 5.6 7.2 90 0.7 NNE 13 17 7 9 1029.9 1029.9 0.0
22/03:30am 9.1 6.4 7.4 89 0.8 NNE 11 13 6 7 1029.7 1029.7 0.0
22/03:00am 9.5 6.9 7.6 88 0.9 NNE 11 15 6 8 1029.9 1029.9 0.0
22/02:30am 10.2 7.7 8.0 86 1.1 NNE 11 13 6 7 1029.9 1029.9 0.0
22/02:00am 11.0 8.5 8.4 84 1.3 NNE 11 13 6 7 1029.8 1029.8 0.0
22/01:30am 11.0 8.9 8.4 84 1.3 NNE 9 11 5 6 1030.0 1030.0 0.0
22/01:00am 11.5 9.5 8.5 82 1.5 NE 9 13 5 7 1030.3 1030.2 0.0
22/12:30am 11.5 9.6 8.9 84 1.3 N 9 11 5 6 1030.4 1030.3 0.0
22/12:00am 11.7 9.5 9.3 85 1.2 N 11 13 6 7 1030.4 1030.3 0.0
 
Date/Time
WST
Temp
°C
App
Temp
°C
Dew
Point
Rel
Hum
%
Delta-T
°C
Wind Press
QNH
hPa
Press
MSL
hPa
Rain
since 9 am
mm
Dir
 
Spd
km/h
Gust
km/h
Spd
kts
Gust
kts
21/11:30pm 11.6 9.4 9.5 87 1.1 NNE 11 13 6 7 1030.3 1030.2 0.0
21/11:00pm 11.8 10.1 9.7 87 1.1 ENE 9 15 5 8 1030.4 1030.3 0.0
21/10:30pm 12.3 10.2 9.9 85 1.2 NE 11 19 6 10 1030.4 1030.3 0.0
21/10:00pm 12.7 10.8 9.2 79 1.8 ENE 9 15 5 8 1030.4 1030.3 0.0
21/09:30pm 12.7 10.5 8.0 73 2.3 NE 9 11 5 6 1030.5 1030.4 0.0
21/09:00pm 12.9 10.1 7.1 68 2.8 NE 11 13 6 7 1030.7 1030.6 0.0
21/08:30pm 12.7 9.8 6.3 65 3.1 ENE 11 15 6 8 1030.7 1030.6 0.0
21/08:00pm 12.4 10.4 6.9 69 2.6 ENE 7 11 4 6 1031.0 1030.9 0.0
21/07:30pm 12.7 10.3 7.0 68 2.8 NE 9 11 5 6 1031.0 1030.9 0.0
21/07:00pm 12.4 9.9 6.5 67 2.8 ENE 9 13 5 7 1031.0 1030.9 0.0
21/06:30pm 11.6 9.1 6.5 71 2.4 E 9 11 5 6 1031.1 1031.0 0.0
21/06:00pm 12.2 9.7 6.7 69 2.6 ENE 9 9 5 5 1031.0 1030.9 0.0
21/05:30pm 12.4 9.9 6.7 68 2.7 E 9 11 5 6 1030.8 1030.7 0.0
21/05:00pm 13.2 10.8 6.8 65 3.1 E 9 11 5 6 1030.8 1030.7 0.0
21/04:30pm 14.0 11.6 7.1 63 3.4 ESE 9 11 5 6 1030.7 1030.6 0.0
21/04:00pm 14.5 11.8 7.3 62 3.5 SE 11 15 6 8 1030.7 1030.6 0.0
21/03:30pm 14.9 11.9 7.5 61 3.7 SE 13 20 7 11 1030.6 1030.5 0.0
21/03:00pm 15.2 12.1 7.2 59 3.9 SE 13 22 7 12 1030.3 1030.2 0.0
21/02:30pm 15.6 12.3 6.3 54 4.5 SE 13 17 7 9 1030.4 1030.3 0.0
21/02:00pm 15.5 12.2 6.2 54 4.5 SE 13 19 7 10 1030.4 1030.3 0.0
21/01:30pm 15.3 12.3 7.8 61 3.8 SE 13 19 7 10 1030.6 1030.5 0.0
21/01:00pm 15.6 12.5 7.1 57 4.2 SE 13 19 7 10 1030.6 1030.5 0.0
21/12:30pm 16.8 13.7 7.4 54 4.7 SE 13 19 7 10 1030.8 1030.7 0.0
21/12:00pm 16.8 13.7 7.4 54 4.7 SE 13 19 7 10 1031.1 1031.0 0.0
21/11:30am 15.9 12.6 6.6 54 4.6 SE 13 17 7 9 1031.6 1031.5 0.0
21/11:00am 17.1 14.4 7.5 53 4.8 SE 11 17 6 9 1032.0 1031.9 0.0
21/10:30am 15.0 13.2 8.0 63 3.5 S 7 15 4 8 1032.2 1032.1 0.0
21/10:00am 14.8 13.0 8.1 64 3.3 SSW 7 11 4 6 1032.5 1032.4 0.0
21/09:30am 14.3 12.3 8.5 68 2.9 W 9 11 5 6 1032.7 1032.6 0.0
21/09:00am 13.2 10.9 8.9 75 2.2 WNW 11 13 6 7 1032.8 1032.7 0.8
21/08:30am 12.0 10.3 8.5 79 1.7 WSW 7 11 4 6 1032.7 1032.6 0.8
21/08:00am 11.7 9.5 8.0 78 1.8 WSW 9 15 5 8 1032.5 1032.4 0.8
21/07:30am 11.4 9.5 7.7 78 1.8 NW 7 9 4 5 1032.0 1031.9 0.8
21/07:00am 10.0 8.0 7.3 83 1.3 NW 7 9 4 5 1031.8 1031.7 0.8
21/06:30am 7.8 5.2 5.9 88 0.9 N 9 9 5 5 1031.5 1031.4 0.8
21/06:00am 9.6 7.0 6.1 79 1.6 NNW 9 11 5 6 1031.3 1031.2 0.8
21/05:30am 10.2 8.1 6.5 78 1.7 W 7 7 4 4 1030.9 1030.8 0.8
21/05:00am 10.6 8.1 6.6 76 1.9 W 9 11 5 6 1030.5 1030.4 0.8
21/04:30am 10.4 7.9 6.7 78 1.7 W 9 11 5 6 1030.4 1030.3 0.8
21/04:00am 8.7 6.5 6.3 85 1.1 NW 7 11 4 6 1030.3 1030.2 0.8
21/03:30am 8.0 5.7 5.6 85 1.1 NNW 7 9 4 5 1029.8 1029.8 0.8
21/03:00am 8.3 5.6 5.6 83 1.2 NNW 9 9 5 5 1029.8 1029.8 0.8
21/02:30am 7.0 4.2 5.0 87 0.9 N 9 9 5 5 1030.2 1030.1 0.8
21/02:00am 9.8 7.5 5.6 75 1.9 W 7 9 4 5 1030.3 1030.2 0.8
21/01:30am 9.0 6.6 6.8 86 1.0 W 9 11 5 6 1030.3 1030.2 0.8
21/01:00am 6.4 3.9 4.9 90 0.7 WSW 7 9 4 5 1030.3 1030.2 0.8
21/12:30am 5.6 2.9 3.8 88 0.8 WNW 7 9 4 5 1030.3 1030.2 0.8
21/12:00am 6.7 3.7 4.2 84 1.1 NW 9 9 5 5 1030.3 1030.2 0.8
 
Date/Time
WST
Temp
°C
App
Temp
°C
Dew
Point
Rel
Hum
%
Delta-T
°C
Wind Press
QNH
hPa
Press
MSL
hPa
Rain
since 9 am
mm
Dir
 
Spd
km/h
Gust
km/h
Spd
kts
Gust
kts
20/11:30pm 8.7 6.5 5.1 78 1.6 SSE 6 7 3 4 1030.5 1030.4 0.8
20/11:00pm 10.3 7.9 5.3 71 2.3 SE 7 9 4 5 1030.5 1030.4 0.8
20/10:30pm 11.6 9.3 5.9 68 2.7 SE 7 9 4 5 1030.4 1030.3 0.8
20/10:00pm 11.4 9.0 5.1 65 2.9 SSE 7 11 4 6 1030.3 1030.2 0.8
20/09:30pm 12.0 8.8 5.0 62 3.2 SSE 11 17 6 9 1030.2 1030.1 0.8
20/09:00pm 12.8 9.8 6.2 64 3.1 SSE 11 17 6 9 1030.0 1030.0 0.8
20/08:30pm 12.0 9.8 6.1 67 2.8 SSE 7 13 4 7 1029.9 1029.9 0.8
20/08:00pm 12.3 10.7 6.4 67 2.8 SW 4 13 2 7 1029.7 1029.7 0.8
20/07:30pm 11.7 10.0 7.4 75 2.1 WSW 6 13 3 7 1029.7 1029.7 0.8
20/07:00pm 12.0 8.7 6.5 69 2.6 SSW 13 20 7 11 1029.4 1029.4 0.8
20/06:30pm 11.8 8.9 6.5 70 2.5 SSE 11 17 6 9 1029.1 1029.0 0.8
20/06:00pm 12.2 9.4 7.1 71 2.4 SSE 11 19 6 10 1028.9 1028.8 0.8
20/05:30pm 11.5 9.0 8.0 79 1.7 SE 11 19 6 10 1028.7 1028.6 0.8
20/05:00pm 12.2 8.5 7.9 75 2.1 S 17 30 9 16 1028.5 1028.4 0.8
20/04:30pm 12.5 9.6 6.5 67 2.9 SSE 11 17 6 9 1028.2 1028.1 0.6
20/04:00pm 13.1 9.7 7.8 70 2.6 SSE 15 20 8 11 1027.9 1027.8 0.6
20/03:30pm 12.7 10.0 8.8 77 2.0 SSE 13 20 7 11 1027.8 1027.7 0.6

Other Formats:

Comma delimited format used in spreadsheet applications
http://www.bom.gov.au/fwo/IDW60801/IDW60801.94647.axf

JavaScript Object Notation format (JSON) in row-major order
http://www.bom.gov.au/fwo/IDW60801/IDW60801.94647.json